createdAt,value
2019-03-05T00:00:28.023Z,66.80
2019-03-05T00:01:28.050Z,66.42
2019-03-05T00:02:28.079Z,66.61
2019-03-05T00:03:28.110Z,66.42
2019-03-05T00:04:28.139Z,66.52
2019-03-05T00:05:28.168Z,66.52
2019-03-05T00:06:28.197Z,66.33
2019-03-05T00:07:28.224Z,66.52
2019-03-05T00:08:28.254Z,66.33
2019-03-05T00:09:28.282Z,66.42
2019-03-05T00:10:28.311Z,66.33
2019-03-05T00:11:28.342Z,65.86
2019-03-05T00:12:28.371Z,65.95
2019-03-05T00:13:28.399Z,65.67
2019-03-05T00:14:28.427Z,65.95
2019-03-05T00:15:28.458Z,66.05
2019-03-05T00:16:28.487Z,66.05
2019-03-05T00:17:28.515Z,65.47
2019-03-05T00:18:28.544Z,65.38
2019-03-05T00:19:28.577Z,65.47
2019-03-05T00:20:28.601Z,65.67
2019-03-05T00:21:28.632Z,65.67
2019-03-05T00:22:28.660Z,65.86
2019-03-05T00:23:28.689Z,65.47
2019-03-05T00:24:28.717Z,65.67
2019-03-05T00:25:28.746Z,66.05
2019-03-05T00:26:28.776Z,65.76
2019-03-05T00:27:28.806Z,65.86
2019-03-05T00:28:28.835Z,65.57
2019-03-05T00:29:28.866Z,65.47
2019-03-05T00:30:28.892Z,65.38
2019-03-05T00:31:28.924Z,65.47
2019-03-05T00:32:28.959Z,65.47
2019-03-05T00:33:28.982Z,65.47
2019-03-05T00:34:29.014Z,65.19
2019-03-05T00:35:29.038Z,65.38
2019-03-05T00:36:29.068Z,65.67
2019-03-05T00:37:29.096Z,65.47
2019-03-05T00:38:29.138Z,65.57
2019-03-05T00:39:29.154Z,65.47
2019-03-05T00:40:29.183Z,65.67
2019-03-05T00:41:29.216Z,65.76
2019-03-05T00:42:29.242Z,65.95
2019-03-05T00:43:29.271Z,65.47
2019-03-05T00:44:29.299Z,65.47
2019-03-05T00:45:29.344Z,65.38
2019-03-05T00:46:29.357Z,65.57
2019-03-05T00:47:29.389Z,65.67
2019-03-05T00:48:29.419Z,65.67
2019-03-05T00:49:29.446Z,65.67
2019-03-05T00:50:29.474Z,65.57
2019-03-05T00:51:29.503Z,65.38
2019-03-05T00:52:29.534Z,65.47
2019-03-05T00:53:29.561Z,65.47
2019-03-05T00:54:29.592Z,65.38
2019-03-05T00:55:29.623Z,65.47
2019-03-05T00:56:29.650Z,65.67
2019-03-05T00:57:29.678Z,65.67
2019-03-05T00:58:29.707Z,65.57
2019-03-05T00:59:29.739Z,65.57
2019-03-05T01:00:29.766Z,65.86
2019-03-05T01:01:29.796Z,65.57
2019-03-05T01:02:29.824Z,65.38
2019-03-05T01:03:29.862Z,65.47
2019-03-05T01:04:29.883Z,65.47
2019-03-05T01:05:29.913Z,65.57
2019-03-05T01:06:29.943Z,65.03
2019-03-05T01:07:29.970Z,65.09
2019-03-05T01:08:30.000Z,65.19
2019-03-05T01:09:30.030Z,65.38
2019-03-05T01:10:30.061Z,64.81
2019-03-05T01:11:30.088Z,64.90
2019-03-05T01:12:30.117Z,65.28
2019-03-05T01:13:30.148Z,64.90
2019-03-05T01:14:30.175Z,65.00
2019-03-05T01:15:30.204Z,65.09
2019-03-05T01:16:30.238Z,65.09
2019-03-05T01:17:30.261Z,64.84
2019-03-05T01:18:30.296Z,64.90
2019-03-05T01:19:30.321Z,65.32
2019-03-05T01:20:30.351Z,64.90
2019-03-05T01:21:30.379Z,64.81
2019-03-05T01:22:30.409Z,64.72
2019-03-05T01:23:30.439Z,65.03
2019-03-05T01:24:30.468Z,65.09
2019-03-05T01:25:30.496Z,65.22
2019-03-05T01:26:30.526Z,64.75
2019-03-05T01:27:30.555Z,64.81
2019-03-05T01:28:30.585Z,64.53
2019-03-05T01:29:30.615Z,64.62
2019-03-05T01:30:30.643Z,64.72
2019-03-05T01:31:30.674Z,65.09
2019-03-05T01:32:30.707Z,64.84
2019-03-05T01:33:30.733Z,64.53
2019-03-05T01:34:30.767Z,64.72
2019-03-05T01:35:30.799Z,64.90
2019-03-05T01:36:30.819Z,64.81
2019-03-05T01:37:30.847Z,64.53
2019-03-05T01:38:30.888Z,64.62
2019-03-05T01:39:30.910Z,64.34
2019-03-05T01:40:30.936Z,64.62
2019-03-05T01:41:30.970Z,64.72
2019-03-05T01:42:30.995Z,65.19
2019-03-05T01:43:31.024Z,65.09
2019-03-05T01:44:31.053Z,65.00
2019-03-05T01:45:31.082Z,65.19
2019-03-05T01:46:31.116Z,65.09
2019-03-05T01:47:31.142Z,65.00
2019-03-05T01:48:31.173Z,64.90
2019-03-05T01:49:31.201Z,64.90
2019-03-05T01:50:31.229Z,64.81
2019-03-05T01:51:31.260Z,64.81
2019-03-05T01:52:31.287Z,65.09
2019-03-05T01:53:31.316Z,64.90
2019-03-05T01:54:31.347Z,65.19
2019-03-05T01:55:31.377Z,64.90
2019-03-05T01:56:31.407Z,65.47
2019-03-05T01:57:31.434Z,65.38
2019-03-05T01:58:31.464Z,65.47
2019-03-05T01:59:31.493Z,65.19
2019-03-05T02:00:31.523Z,65.38
2019-03-05T02:01:31.554Z,66.05
2019-03-05T02:02:31.581Z,66.05
2019-03-05T02:03:31.611Z,65.86
2019-03-05T02:04:31.642Z,65.76
2019-03-05T02:05:31.670Z,65.47
2019-03-05T02:06:31.696Z,65.67
2019-03-05T02:07:31.728Z,65.47
2019-03-05T02:08:31.759Z,66.05
2019-03-05T02:09:31.783Z,66.05
2019-03-05T02:10:31.829Z,66.24
2019-03-05T02:11:31.843Z,65.95
2019-03-05T02:12:31.871Z,66.42
2019-03-05T02:13:31.898Z,66.05
2019-03-05T02:14:31.929Z,66.52
2019-03-05T02:15:31.959Z,66.42
2019-03-05T02:16:31.990Z,66.42
2019-03-05T02:17:32.016Z,66.42
2019-03-05T02:18:32.045Z,66.14
2019-03-05T02:19:32.074Z,66.24
2019-03-05T02:20:32.104Z,66.24
2019-03-05T02:21:32.136Z,66.71
2019-03-05T02:22:32.161Z,66.80
2019-03-05T02:23:32.194Z,66.42
2019-03-05T02:24:32.222Z,66.61
2019-03-05T02:25:32.248Z,66.52
2019-03-05T02:26:32.280Z,66.42
2019-03-05T02:27:32.307Z,66.52
2019-03-05T02:28:32.338Z,66.52
2019-03-05T02:29:32.365Z,66.61
2019-03-05T02:30:32.397Z,66.42
2019-03-05T02:31:32.424Z,66.52
2019-03-05T02:32:32.453Z,66.24
2019-03-05T02:33:32.482Z,66.33
2019-03-05T02:34:32.511Z,66.33
2019-03-05T02:35:32.541Z,66.42
2019-03-05T02:36:32.571Z,66.42
2019-03-05T02:37:32.598Z,66.33
2019-03-05T02:38:32.626Z,65.57
2019-03-05T02:39:32.660Z,65.57
2019-03-05T02:40:32.690Z,65.76
2019-03-05T02:41:32.714Z,65.67
2019-03-05T02:42:32.745Z,65.86
2019-03-05T02:43:32.790Z,65.57
2019-03-05T02:44:32.803Z,65.95
2019-03-05T02:45:32.831Z,66.52
2019-03-05T02:46:32.860Z,66.42
2019-03-05T02:47:32.889Z,65.86
2019-03-05T02:48:32.919Z,65.95
2019-03-05T02:49:32.945Z,65.95
2019-03-05T02:50:32.978Z,65.95
2019-03-05T02:51:33.010Z,66.42
2019-03-05T02:52:33.033Z,66.42
2019-03-05T02:53:33.063Z,66.52
2019-03-05T02:54:33.098Z,66.33
2019-03-05T02:55:33.120Z,66.61
2019-03-05T02:56:33.151Z,66.71
2019-03-05T02:57:33.187Z,66.90
2019-03-05T02:58:33.256Z,66.71
2019-03-05T02:59:33.235Z,66.90
2019-03-05T03:00:33.266Z,67.00
2019-03-05T03:01:33.295Z,67.19
2019-03-05T03:02:33.323Z,67.19
2019-03-05T03:03:33.353Z,67.09
2019-03-05T03:04:33.381Z,67.19
2019-03-05T03:05:33.425Z,67.09
2019-03-05T03:06:33.440Z,67.28
2019-03-05T03:07:33.473Z,67.28
2019-03-05T03:08:33.497Z,67.19
2019-03-05T03:09:33.530Z,67.94
2019-03-05T03:10:33.563Z,67.66
2019-03-05T03:11:33.589Z,67.85
2019-03-05T03:12:33.614Z,67.66
2019-03-05T03:13:33.645Z,67.47
2019-03-05T03:14:33.671Z,67.47
2019-03-05T03:15:33.699Z,67.76
2019-03-05T03:16:33.730Z,67.66
2019-03-05T03:17:33.760Z,67.57
2019-03-05T03:18:33.794Z,67.94
2019-03-05T03:19:33.818Z,67.76
2019-03-05T03:20:33.847Z,68.04
2019-03-05T03:21:33.877Z,68.13
2019-03-05T03:22:33.904Z,68.61
2019-03-05T03:23:33.934Z,68.33
2019-03-05T03:24:33.961Z,68.23
2019-03-05T03:25:33.990Z,68.33
2019-03-05T03:26:34.020Z,68.13
2019-03-05T03:27:34.048Z,68.13
2019-03-05T03:28:34.079Z,68.42
2019-03-05T03:29:34.106Z,68.33
2019-03-05T03:30:34.151Z,68.33
2019-03-05T03:31:34.164Z,68.71
2019-03-05T03:32:34.194Z,68.23
2019-03-05T03:33:34.221Z,68.99
2019-03-05T03:34:34.256Z,68.42
2019-03-05T03:35:34.281Z,69.09
2019-03-05T03:36:34.312Z,68.80
2019-03-05T03:37:34.340Z,68.80
2019-03-05T03:38:34.370Z,68.99
2019-03-05T03:39:34.404Z,68.80
2019-03-05T03:40:34.429Z,69.09
2019-03-05T03:41:34.454Z,68.80
2019-03-05T03:42:34.483Z,68.71
2019-03-05T03:43:34.511Z,68.23
2019-03-05T03:44:34.542Z,68.80
2019-03-05T03:45:34.570Z,68.52
2019-03-05T03:46:34.600Z,69.18
2019-03-05T03:47:41.071Z,68.90
2019-03-05T03:49:36.630Z,69.09
2019-03-05T03:50:36.656Z,69.18
2019-03-05T03:52:38.680Z,69.56
2019-03-05T03:53:38.687Z,69.37
2019-03-05T03:55:40.700Z,69.27
2019-03-05T03:56:40.717Z,69.46
2019-03-05T03:58:32.653Z,69.46
2019-03-05T03:59:32.673Z,69.56
2019-03-05T04:01:34.819Z,69.94
2019-03-05T04:02:34.844Z,69.46
2019-03-05T04:04:36.984Z,69.75
2019-03-05T04:05:36.981Z,69.85
2019-03-05T04:06:37.022Z,69.94
2019-03-05T04:07:37.039Z,69.66
2019-03-05T04:08:37.076Z,69.94
2019-03-05T04:09:37.099Z,69.66
2019-03-05T04:10:37.127Z,70.13
2019-03-05T04:11:37.155Z,69.85
2019-03-05T04:12:37.183Z,69.94
2019-03-05T04:13:37.212Z,69.94
2019-03-05T04:14:37.246Z,70.42
2019-03-05T04:15:37.269Z,70.13
2019-03-05T04:16:37.298Z,70.23
2019-03-05T04:17:37.326Z,70.04
2019-03-05T04:18:37.358Z,70.51
2019-03-05T04:19:37.391Z,70.51
2019-03-05T04:20:37.414Z,70.51
2019-03-05T04:21:37.446Z,70.51
2019-03-05T04:22:37.473Z,70.32
2019-03-05T04:23:37.502Z,70.42
2019-03-05T04:24:37.530Z,70.61
2019-03-05T04:25:37.558Z,71.18
2019-03-05T04:26:37.587Z,71.08
2019-03-05T04:27:37.642Z,71.18
2019-03-05T04:28:37.647Z,71.75
2019-03-05T04:29:37.674Z,71.27
2019-03-05T04:30:37.707Z,71.18
2019-03-05T04:31:37.740Z,71.66
2019-03-05T04:32:37.762Z,71.75
2019-03-05T04:33:37.792Z,72.03
2019-03-05T04:34:37.820Z,71.84
2019-03-05T04:35:37.872Z,72.22
2019-03-05T04:36:37.878Z,72.22
2019-03-05T04:37:37.906Z,72.60
2019-03-05T04:38:37.937Z,72.89
2019-03-05T04:39:37.966Z,72.89
2019-03-05T04:40:37.994Z,73.27
2019-03-05T04:41:38.024Z,73.27
2019-03-05T04:42:38.054Z,73.74
2019-03-05T04:43:38.081Z,73.93
2019-03-05T04:44:38.108Z,73.36
2019-03-05T04:45:38.139Z,73.65
2019-03-05T04:46:38.168Z,73.46
2019-03-05T04:47:38.197Z,74.12
2019-03-05T04:48:38.225Z,74.03
2019-03-05T04:49:38.259Z,74.31
2019-03-05T04:50:38.285Z,74.03
2019-03-05T04:51:38.315Z,74.22
2019-03-05T04:52:38.341Z,73.93
2019-03-05T04:53:38.406Z,74.12
2019-03-05T04:54:38.401Z,74.69
2019-03-05T04:55:38.430Z,74.41
2019-03-05T04:56:38.457Z,74.98
2019-03-05T04:57:38.487Z,74.69
2019-03-05T04:58:38.518Z,75.36
2019-03-05T04:59:38.546Z,75.36
2019-03-05T05:00:38.575Z,75.64
2019-03-05T05:01:38.603Z,75.64
2019-03-05T05:02:38.636Z,75.74
2019-03-05T05:03:38.684Z,76.12
2019-03-05T05:04:38.696Z,75.93
2019-03-05T05:05:38.719Z,75.64
2019-03-05T05:06:38.747Z,75.64
2019-03-05T05:07:38.777Z,76.31
2019-03-05T05:08:38.808Z,75.84
2019-03-05T05:09:38.835Z,76.03
2019-03-05T05:10:38.868Z,76.21
2019-03-05T05:11:38.916Z,76.21
2019-03-05T05:12:38.921Z,76.59
2019-03-05T05:13:38.951Z,76.65
2019-03-05T05:14:38.983Z,76.46
2019-03-05T05:15:39.011Z,76.56
2019-03-05T05:16:39.040Z,76.18
2019-03-05T05:17:39.066Z,76.50
2019-03-05T05:18:39.101Z,76.21
2019-03-05T05:19:39.127Z,77.07
2019-03-05T05:20:39.154Z,76.84
2019-03-05T05:21:39.183Z,77.07
2019-03-05T05:22:39.213Z,76.84
2019-03-05T05:23:39.362Z,77.51
2019-03-05T05:24:39.268Z,76.75
2019-03-05T05:25:39.298Z,76.88
2019-03-05T05:26:39.331Z,76.65
2019-03-05T05:27:39.359Z,77.31
2019-03-05T05:28:39.475Z,77.41
2019-03-05T05:29:39.425Z,77.12
2019-03-05T05:30:39.443Z,76.75
2019-03-05T05:31:39.472Z,76.65
2019-03-05T05:32:39.500Z,76.75
2019-03-05T05:33:39.532Z,76.84
2019-03-05T05:34:39.558Z,76.65
2019-03-05T05:35:39.587Z,76.84
2019-03-05T05:36:39.616Z,77.36
2019-03-05T05:37:39.645Z,77.12
2019-03-05T05:38:39.674Z,77.22
2019-03-05T05:39:39.705Z,77.22
2019-03-05T05:40:39.731Z,77.22
2019-03-05T05:41:39.761Z,77.31
2019-03-05T05:42:39.789Z,77.31
2019-03-05T05:43:39.821Z,77.31
2019-03-05T05:44:39.848Z,77.31
2019-03-05T05:45:39.875Z,77.22
2019-03-05T05:46:39.905Z,77.12
2019-03-05T05:47:39.934Z,77.22
2019-03-05T05:48:39.961Z,77.12
2019-03-05T05:49:39.992Z,77.41
2019-03-05T05:50:40.020Z,77.03
2019-03-05T05:51:40.052Z,77.22
2019-03-05T05:52:40.083Z,77.31
2019-03-05T05:53:40.108Z,77.51
2019-03-05T05:54:40.138Z,77.89
2019-03-05T05:55:40.166Z,76.84
2019-03-05T05:56:40.194Z,77.31
2019-03-05T05:57:40.223Z,77.60
2019-03-05T05:58:40.251Z,77.41
2019-03-05T05:59:40.283Z,77.03
2019-03-05T06:00:40.307Z,77.41
2019-03-05T06:01:40.337Z,77.03
2019-03-05T06:02:40.366Z,77.03
2019-03-05T06:03:40.395Z,77.41
2019-03-05T06:04:40.429Z,76.84
2019-03-05T06:05:40.458Z,77.31
2019-03-05T06:06:40.482Z,77.36
2019-03-05T06:07:40.517Z,77.41
2019-03-05T06:08:40.539Z,76.93
2019-03-05T06:09:40.569Z,76.65
2019-03-05T06:10:40.597Z,76.75
2019-03-05T06:11:40.626Z,76.78
2019-03-05T06:12:40.654Z,76.65
2019-03-05T06:13:40.686Z,77.41
2019-03-05T06:14:40.712Z,77.12
2019-03-05T06:15:40.743Z,77.12
2019-03-05T06:16:40.769Z,77.36
2019-03-05T06:17:40.799Z,77.17
2019-03-05T06:18:40.853Z,76.88
2019-03-05T06:19:40.857Z,76.59
2019-03-05T06:20:42.681Z,76.69
2019-03-05T06:21:40.915Z,77.55
2019-03-05T06:22:40.943Z,76.97
2019-03-05T06:23:40.972Z,76.88
2019-03-05T06:24:40.999Z,76.50
2019-03-05T06:25:41.029Z,76.50
2019-03-05T06:26:41.058Z,76.59
2019-03-05T06:27:41.089Z,76.69
2019-03-05T06:28:41.116Z,76.69
2019-03-05T06:29:41.147Z,76.31
2019-03-05T06:30:41.180Z,76.56
2019-03-05T06:31:41.203Z,76.56
2019-03-05T06:32:41.232Z,76.27
2019-03-05T06:33:41.260Z,76.46
2019-03-05T06:34:41.290Z,76.56
2019-03-05T06:35:41.318Z,76.69
2019-03-05T06:36:41.347Z,76.08
2019-03-05T06:37:41.376Z,75.79
2019-03-05T06:38:41.408Z,75.79
2019-03-05T06:39:41.445Z,75.89
2019-03-05T06:40:41.468Z,76.03
2019-03-05T06:41:41.492Z,76.12
2019-03-05T06:42:41.520Z,76.12
2019-03-05T06:43:41.549Z,76.12
2019-03-05T06:44:41.578Z,76.03
2019-03-05T06:45:41.610Z,75.84
2019-03-05T06:46:41.636Z,75.84
2019-03-05T06:47:41.687Z,75.64
2019-03-05T06:48:41.693Z,75.55
2019-03-05T06:49:41.738Z,75.64
2019-03-05T06:50:41.753Z,75.74
2019-03-05T06:51:41.782Z,75.64
2019-03-05T06:52:41.810Z,75.36
2019-03-05T06:53:41.840Z,75.64
2019-03-05T06:54:41.867Z,75.26
2019-03-05T06:55:41.900Z,75.36
2019-03-05T06:56:41.925Z,75.07
2019-03-05T06:57:41.955Z,75.26
2019-03-05T06:58:41.989Z,74.88
2019-03-05T06:59:42.015Z,74.69
2019-03-05T07:00:42.042Z,74.51
2019-03-05T07:01:42.072Z,74.69
2019-03-05T07:02:42.100Z,75.07
2019-03-05T07:03:42.128Z,74.51
2019-03-05T07:04:42.155Z,74.79
2019-03-05T07:05:42.185Z,74.88
2019-03-05T07:06:42.214Z,75.26
2019-03-05T07:07:42.243Z,74.98
2019-03-05T07:08:42.275Z,74.51
2019-03-05T07:09:42.303Z,74.51
2019-03-05T07:10:42.332Z,74.69
2019-03-05T07:11:42.363Z,74.60
2019-03-05T07:12:42.387Z,74.41
2019-03-05T07:13:42.417Z,74.12
2019-03-05T07:14:42.444Z,74.03
2019-03-05T07:15:42.475Z,74.12
2019-03-05T07:16:42.503Z,74.31
2019-03-05T07:17:42.532Z,74.22
2019-03-05T07:18:42.562Z,73.84
2019-03-05T07:19:42.595Z,74.31
2019-03-05T07:20:42.618Z,74.03
2019-03-05T07:21:42.649Z,74.03
2019-03-05T07:22:42.677Z,74.12
2019-03-05T07:23:43.176Z,73.27
2019-03-05T07:24:42.735Z,73.65
2019-03-05T07:25:42.767Z,73.74
2019-03-05T07:26:42.793Z,73.08
2019-03-05T07:27:42.823Z,73.55
2019-03-05T07:28:42.849Z,73.27
2019-03-05T07:29:42.889Z,73.55
2019-03-05T07:30:42.909Z,72.89
2019-03-05T07:31:42.941Z,72.99
2019-03-05T07:32:42.966Z,72.89
2019-03-05T07:33:42.995Z,72.41
2019-03-05T07:34:43.025Z,72.03
2019-03-05T07:35:43.054Z,72.60
2019-03-05T07:36:45.203Z,71.84
2019-03-05T07:37:43.111Z,72.03
2019-03-05T07:38:43.141Z,72.22
2019-03-05T07:39:43.170Z,72.16
2019-03-05T07:40:43.199Z,71.97
2019-03-05T07:41:43.232Z,71.78
2019-03-05T07:42:43.260Z,71.31
2019-03-05T07:43:43.286Z,71.41
2019-03-05T07:44:43.322Z,70.64
2019-03-05T07:45:43.345Z,70.54
2019-03-05T07:46:43.373Z,70.74
2019-03-05T07:47:43.403Z,70.74
2019-03-05T07:48:43.431Z,70.74
2019-03-05T07:49:44.388Z,69.98
2019-03-05T07:50:43.495Z,69.88
2019-03-05T07:51:43.526Z,69.88
2019-03-05T07:52:43.548Z,69.41
2019-03-05T07:53:43.579Z,69.60
2019-03-05T07:54:43.606Z,69.21
2019-03-05T07:55:43.636Z,68.74
2019-03-05T07:56:43.664Z,68.84
2019-03-05T07:57:43.693Z,69.02
2019-03-05T07:58:43.726Z,68.49
2019-03-05T07:59:43.754Z,68.59
2019-03-05T08:00:43.782Z,68.40
2019-03-05T08:01:43.811Z,68.46
2019-03-05T08:02:43.841Z,67.98
2019-03-05T08:03:43.907Z,67.60
2019-03-05T08:04:43.899Z,67.35
2019-03-05T08:05:43.929Z,67.92
2019-03-05T08:06:43.975Z,67.54
2019-03-05T08:07:43.989Z,68.01
2019-03-05T08:08:44.019Z,67.44
2019-03-05T08:09:44.047Z,67.54
2019-03-05T08:10:44.102Z,67.60
2019-03-05T08:11:44.108Z,67.35
2019-03-05T08:12:44.133Z,67.92
2019-03-05T08:13:44.167Z,67.50
2019-03-05T08:14:44.194Z,67.03
2019-03-05T08:15:44.225Z,67.13
2019-03-05T08:16:44.253Z,67.98
2019-03-05T08:17:46.933Z,67.32
2019-03-05T08:18:44.311Z,68.36
2019-03-05T08:19:44.342Z,68.07
2019-03-05T08:20:44.369Z,67.79
2019-03-05T08:21:44.399Z,68.07
2019-03-05T08:22:44.431Z,67.92
2019-03-05T08:23:44.458Z,67.92
2019-03-05T08:24:44.487Z,67.98
2019-03-05T08:25:44.518Z,68.40
2019-03-05T08:26:44.546Z,67.25
2019-03-05T08:27:44.576Z,68.01
2019-03-05T08:28:44.606Z,68.30
2019-03-05T08:29:44.634Z,67.16
2019-03-05T08:30:44.667Z,67.92
2019-03-05T08:31:44.695Z,67.35
2019-03-05T08:32:44.725Z,66.84
2019-03-05T08:33:44.781Z,67.07
2019-03-05T08:34:44.782Z,67.32
2019-03-05T08:35:44.822Z,67.35
2019-03-05T08:36:44.842Z,66.78
2019-03-05T08:37:44.937Z,67.35
2019-03-05T08:38:44.901Z,68.11
2019-03-05T08:39:44.934Z,67.92
2019-03-05T08:40:44.960Z,67.63
2019-03-05T08:41:44.990Z,67.73
2019-03-05T08:42:45.019Z,68.01
2019-03-05T08:43:45.049Z,67.16
2019-03-05T08:44:50.348Z,66.97
2019-03-05T08:45:45.108Z,66.39
2019-03-05T08:46:45.140Z,66.68
2019-03-05T08:47:45.167Z,66.78
2019-03-05T08:48:45.199Z,66.59
2019-03-05T08:49:45.226Z,66.68
2019-03-05T08:50:45.256Z,67.07
2019-03-05T08:51:45.287Z,66.78
2019-03-05T08:52:45.317Z,66.39
2019-03-05T08:53:49.609Z,66.68
2019-03-05T08:54:45.626Z,66.49
2019-03-05T08:55:45.404Z,66.49
2019-03-05T08:56:45.436Z,66.49
2019-03-05T08:57:45.463Z,65.54
2019-03-05T08:58:45.495Z,65.86
2019-03-05T08:59:45.523Z,65.67
2019-03-05T09:00:48.047Z,65.00
2019-03-05T09:01:45.585Z,65.10
2019-03-05T09:02:48.837Z,65.00
2019-03-05T09:03:45.642Z,64.81
2019-03-05T09:04:45.672Z,64.81
2019-03-05T09:05:45.701Z,64.62
2019-03-05T09:06:45.734Z,64.15
2019-03-05T09:07:45.762Z,64.05
2019-03-05T09:08:45.793Z,64.24
2019-03-05T09:09:45.822Z,64.34
2019-03-05T09:10:45.852Z,64.53
2019-03-05T09:11:45.882Z,64.05
2019-03-05T09:12:45.911Z,63.76
2019-03-05T09:13:45.944Z,64.05
2019-03-05T09:14:45.975Z,64.24
2019-03-05T09:15:46.004Z,64.05
2019-03-05T09:16:46.031Z,64.43
2019-03-05T09:17:46.065Z,65.00
2019-03-05T09:18:46.092Z,64.69
2019-03-05T09:19:46.123Z,64.81
2019-03-05T09:20:46.156Z,64.53
2019-03-05T09:21:46.184Z,64.24
2019-03-05T09:22:46.212Z,64.40
2019-03-05T09:23:46.248Z,64.90
2019-03-05T09:24:46.274Z,64.43
2019-03-05T09:25:46.305Z,65.10
2019-03-05T09:26:51.202Z,64.78
2019-03-05T09:27:46.366Z,64.90
2019-03-05T09:28:46.393Z,65.38
2019-03-05T09:29:46.423Z,67.19
2019-03-05T09:30:46.452Z,68.05
2019-03-05T09:31:46.483Z,69.76
2019-03-05T09:32:46.515Z,71.06
2019-03-05T09:33:46.543Z,72.05
2019-03-05T09:34:46.574Z,72.11
2019-03-05T09:35:46.657Z,71.34
2019-03-05T09:36:50.887Z,71.44
2019-03-05T09:37:46.665Z,72.49
2019-03-05T09:38:46.694Z,72.30
2019-03-05T09:39:46.727Z,72.39
2019-03-05T09:40:46.754Z,73.34
2019-03-05T09:41:46.788Z,73.53
2019-03-05T09:42:46.813Z,74.10
2019-03-05T09:43:46.845Z,74.29
2019-03-05T09:44:46.872Z,74.77
2019-03-05T09:45:46.904Z,74.67
2019-03-05T09:46:46.933Z,75.91
2019-03-05T09:47:54.130Z,76.29
2019-03-05T09:49:51.004Z,75.91
2019-03-05T09:50:51.012Z,75.62
2019-03-05T09:52:55.493Z,74.77
2019-03-05T09:53:55.066Z,75.62
2019-03-05T09:55:59.121Z,74.48
2019-03-05T09:56:59.123Z,74.96
2019-03-05T09:58:52.073Z,73.82
2019-03-05T09:59:52.097Z,73.15
2019-03-05T10:01:56.147Z,73.72
2019-03-05T10:02:56.154Z,74.77
2019-03-05T10:04:59.272Z,73.00
2019-03-05T10:05:59.283Z,73.00
2019-03-05T10:08:03.310Z,71.19
2019-03-05T10:09:03.334Z,70.65
2019-03-05T10:11:07.382Z,69.51
2019-03-05T10:12:07.386Z,69.60
2019-03-05T10:14:11.413Z,67.45
2019-03-05T10:15:11.437Z,65.64
2019-03-05T10:17:15.494Z,64.40
2019-03-05T10:18:15.496Z,65.26
2019-03-05T10:20:26.701Z,64.15
2019-03-05T10:21:19.548Z,63.39
2019-03-05T10:22:26.755Z,62.91
2019-03-05T10:24:21.769Z,62.24
2019-03-05T10:25:21.784Z,60.84
2019-03-05T10:27:25.849Z,59.60
2019-03-05T10:28:25.883Z,59.41
2019-03-05T10:30:29.929Z,59.53
2019-03-05T10:31:29.924Z,58.11
2019-03-05T10:33:22.888Z,56.32
2019-03-05T10:34:22.916Z,55.55
2019-03-05T10:36:26.973Z,53.45
2019-03-05T10:37:26.990Z,53.36
2019-03-05T10:39:31.472Z,51.86
2019-03-05T10:40:31.059Z,52.08
2019-03-05T10:42:35.104Z,47.68
2019-03-05T10:43:35.130Z,45.02
2019-03-05T10:45:38.295Z,41.37
2019-03-05T10:46:38.321Z,39.01
2019-03-05T10:48:41.474Z,34.81
2019-03-05T10:49:41.509Z,34.06
2019-03-05T10:51:45.573Z,33.37
2019-03-05T10:52:45.589Z,33.56
2019-03-05T10:54:49.757Z,34.28
2019-03-05T10:55:49.667Z,35.13
2019-03-05T10:57:53.711Z,36.44
2019-03-05T10:58:53.745Z,37.45
2019-03-05T11:00:57.814Z,40.19
2019-03-05T11:01:57.826Z,41.13
2019-03-05T11:04:01.058Z,42.44
2019-03-05T11:05:01.098Z,42.93
2019-03-05T11:07:05.132Z,44.91
2019-03-05T11:08:05.163Z,45.98
2019-03-05T11:10:08.274Z,42.90
2019-03-05T11:11:13.663Z,41.86
2019-03-05T11:13:01.230Z,39.01
2019-03-05T11:14:01.263Z,38.12
2019-03-05T11:16:05.322Z,40.00
2019-03-05T11:17:05.335Z,40.94
2019-03-05T11:19:09.374Z,42.64
2019-03-05T11:20:09.401Z,43.50
2019-03-05T11:22:19.810Z,44.79
2019-03-05T11:23:11.929Z,46.22
2019-03-05T11:25:15.018Z,48.02
2019-03-05T11:26:15.024Z,48.49
2019-03-05T11:28:18.210Z,49.07
2019-03-05T11:29:18.235Z,49.16
2019-03-05T11:31:21.302Z,49.33
2019-03-05T11:32:21.313Z,49.04
2019-03-05T11:34:24.421Z,49.80
2019-03-05T11:35:24.404Z,49.49
2019-03-05T11:37:27.571Z,50.45
2019-03-05T11:38:27.596Z,51.40
2019-03-05T11:40:29.951Z,51.78
2019-03-05T11:41:29.973Z,51.78
2019-03-05T11:43:21.934Z,51.40
2019-03-05T11:44:21.944Z,51.88
2019-03-05T11:46:24.046Z,52.14
2019-03-05T11:47:24.071Z,52.33
2019-03-05T11:49:26.343Z,51.76
2019-03-05T11:50:26.348Z,51.28
2019-03-05T11:52:30.383Z,51.47
2019-03-05T11:53:30.404Z,51.92
2019-03-05T11:55:33.646Z,52.20
2019-03-05T11:56:33.678Z,52.01
2019-03-05T11:58:35.917Z,52.01
2019-03-05T11:59:35.927Z,52.78
2019-03-05T12:01:38.070Z,53.32
2019-03-05T12:02:38.098Z,53.61
2019-03-05T12:04:41.122Z,54.27
2019-03-05T12:05:41.147Z,54.75
2019-03-05T12:07:46.012Z,54.85
2019-03-05T12:08:43.462Z,54.56
2019-03-05T12:10:45.502Z,55.04
2019-03-05T12:11:45.530Z,56.21
2019-03-05T12:13:47.696Z,53.65
2019-03-05T12:14:47.712Z,48.95
2019-03-05T12:16:51.739Z,42.36
2019-03-05T12:17:51.760Z,39.41
2019-03-05T12:19:53.861Z,36.15
2019-03-05T12:20:53.888Z,35.70
2019-03-05T12:22:46.844Z,29.03
2019-03-05T12:23:47.503Z,27.98
2019-03-05T12:25:50.917Z,25.40
2019-03-05T12:26:50.954Z,24.56
2019-03-05T12:28:54.144Z,23.69
2019-03-05T12:29:54.160Z,22.81
2019-03-05T12:31:58.195Z,23.93
2019-03-05T12:32:58.227Z,24.68
2019-03-05T12:35:02.279Z,27.11
2019-03-05T12:36:02.298Z,29.11
2019-03-05T12:38:06.362Z,32.23
2019-03-05T12:39:06.373Z,32.90
2019-03-05T12:41:10.407Z,33.09
2019-03-05T12:42:10.439Z,33.00
2019-03-05T12:44:12.484Z,33.47
2019-03-05T12:45:12.491Z,34.33
2019-03-05T12:47:15.939Z,34.07
2019-03-05T12:48:14.547Z,33.42
2019-03-05T12:50:16.568Z,30.22
2019-03-05T12:51:16.599Z,28.26
2019-03-05T12:53:08.564Z,25.51
2019-03-05T12:54:08.595Z,23.50
2019-03-05T12:56:10.625Z,21.95
2019-03-05T12:57:10.658Z,22.53
2019-03-05T12:59:12.690Z,22.80
2019-03-05T13:00:12.715Z,23.65
2019-03-05T13:02:14.740Z,25.34
2019-03-05T13:03:14.772Z,26.97
2019-03-05T13:05:16.802Z,30.08
2019-03-05T13:06:16.828Z,31.49
2019-03-05T13:08:18.864Z,36.13
2019-03-05T13:09:19.571Z,38.85
2019-03-05T13:11:20.929Z,43.59
2019-03-05T13:12:20.947Z,45.29
2019-03-05T13:14:22.967Z,45.45
2019-03-05T13:15:22.996Z,43.08
2019-03-05T13:17:25.017Z,38.96
2019-03-05T13:18:26.649Z,36.33
2019-03-05T13:20:27.809Z,32.94
2019-03-05T13:21:27.104Z,31.33
2019-03-05T13:23:19.057Z,28.48
2019-03-05T13:24:19.089Z,27.82
2019-03-05T13:26:21.142Z,26.01
2019-03-05T13:27:22.824Z,25.54
2019-03-05T13:29:23.174Z,23.53
2019-03-05T13:30:25.831Z,22.77
2019-03-05T13:32:25.255Z,22.30
2019-03-05T13:33:25.290Z,21.53
2019-03-05T13:35:30.270Z,21.71
2019-03-05T13:36:27.354Z,21.50
2019-03-05T13:38:29.383Z,22.92
2019-03-05T13:39:29.421Z,24.35
2019-03-05T13:41:31.469Z,27.08
2019-03-05T13:42:33.447Z,29.54
2019-03-05T13:44:34.049Z,33.21
2019-03-05T13:45:33.550Z,34.92
2019-03-05T13:47:37.213Z,37.84
2019-03-05T13:48:35.612Z,39.35
2019-03-05T13:50:37.644Z,42.20
2019-03-05T13:51:37.671Z,42.94
2019-03-05T13:53:39.697Z,44.65
2019-03-05T13:54:39.729Z,45.12
2019-03-05T13:56:42.241Z,45.75
2019-03-05T13:57:43.658Z,47.47
2019-03-05T13:59:43.870Z,49.26
2019-03-05T14:00:43.834Z,49.64
2019-03-05T14:02:35.782Z,48.42
2019-03-05T14:03:35.813Z,47.94
2019-03-05T14:05:37.835Z,48.33
2019-03-05T14:06:37.901Z,47.87
2019-03-05T14:08:39.885Z,43.44
2019-03-05T14:09:39.915Z,41.27
2019-03-05T14:11:41.969Z,36.82
2019-03-05T14:12:42.016Z,35.40
2019-03-05T14:14:44.053Z,32.46
2019-03-05T14:15:44.051Z,30.93
2019-03-05T14:17:46.070Z,30.93
2019-03-05T14:18:46.102Z,30.76
2019-03-05T14:20:48.156Z,29.22
2019-03-05T14:21:48.158Z,28.75
2019-03-05T14:23:50.177Z,28.56
2019-03-05T14:24:58.264Z,28.37
2019-03-05T14:26:52.242Z,29.13
2019-03-05T14:27:52.269Z,29.97
2019-03-05T14:29:54.354Z,31.11
2019-03-05T14:30:54.347Z,31.77
2019-03-05T14:32:46.268Z,33.84
2019-03-05T14:33:46.307Z,35.08
2019-03-05T14:35:48.354Z,36.96
2019-03-05T14:36:48.358Z,38.28